| Date | Time | Temp. (oF) | Dew Point (oF) | Rel. Hum. (%) | Press. (in.) | Wind Dir. | Wind Speed (mph) | Hourly Rainfall (in.) |
|
|---|---|---|---|---|---|---|---|---|---|
| 1 | 02/20 | 00:00 | 53 | 33 | 47 | 30.00 | NW | 1 | 0.00 |
| 2 | 02/19 | 23:00 | 56 | 34 | 44 | 29.99 | NW | 6 | 0.00 |
| 3 | 02/19 | 22:00 | 55 | 35 | 48 | 29.98 | NW | 2 | 0.00 |
| 4 | 02/19 | 21:00 | 56 | 33 | 42 | 29.95 | NW | 2 | 0.00 |
| 5 | 02/19 | 20:00 | 57 | 34 | 42 | 29.93 | NW | 4 | 0.00 |
| 6 | 02/19 | 19:00 | 57 | 34 | 42 | 29.90 | NW | 2 | 0.00 |
| 7 | 02/19 | 18:00 | 62 | 33 | 35 | 29.88 | NW | 2 | 0.00 |
| 8 | 02/19 | 17:00 | 67 | 35 | 32 | 29.85 | NW | 5 | 0.00 |
| 9 | 02/19 | 16:00 | 68 | 38 | 34 | 29.84 | NW | 9 | 0.00 |
| 10 | 02/19 | 15:00 | 68 | 37 | 33 | 29.85 | NW | 7 | 0.00 |
| 11 | 02/19 | 14:00 | 69 | 42 | 38 | 29.54 | NW | 11 | 0.00 |
| 12 | 02/19 | 13:00 | 68 | 41 | 38 | 29.61 | NW | 12 | 0.00 |
| 13 | 02/19 | 12:00 | 64 | 40 | 43 | 29.68 | NW | 11 | 0.00 |
| 14 | 02/19 | 11:00 | 69 | 49 | 50 | 29.72 | NW | 10 | 0.00 |
| 15 | 02/19 | 10:00 | 60 | 42 | 53 | 29.65 | NW | 4 | 0.00 |
| 16 | 02/19 | 09:00 | 57 | 41 | 56 | 29.71 | NW | 10 | 0.00 |
| 17 | 02/19 | 08:00 | 54 | 39 | 57 | 29.86 | NW | 2 | 0.00 |
| 18 | 02/19 | 07:00 | 54 | 38 | 55 | 29.77 | NW | 2 | 0.00 |
| 19 | 02/19 | 06:00 | 54 | 36 | 52 | 29.80 | NW | 3 | 0.00 |
| 20 | 02/19 | 05:00 | 54 | 35 | 50 | 29.76 | NW | 2 | 0.00 |
| 21 | 02/19 | 04:00 | 54 | 34 | 47 | 29.77 | NW | 2 | 0.00 |
| 22 | 02/19 | 03:00 | 52 | 33 | 50 | 29.75 | NW | 2 | 0.00 |
| 23 | 02/19 | 02:00 | 51 | 33 | 52 | 29.76 | NW | 1 | 0.00 |
| 24 | 02/19 | 01:00 | 51 | 34 | 53 | 29.63 | NW | 1 | 0.00 |